• Join FlightAware (Why Join?)
  • Login
  • US Flag 
05:47PM EDT


 

Airport Tracker/Info


-or-


 

Live Flight TrackerFlight Track Log ✈ EJM24 ✈ 03-Jul-2012 ✈ KGVT - KDAL

Flight Track Log - Related Links

Times and Time Zones

All times are in EDT time to prevent confusion due to time zone crossing. See the EJM24 flight status page for this flight to view local times or setup timezone preferences in your user account.

Time Position Orientation Groundspeed Altitude Reporting Facility
EDT Latitude Longitude Course Direction KTS MPH feet Rate Location/Type
04:00PM 32.8403 -96.8356 130° Southeast 161 185 1,500  Level FAA TRACON SMA TRACON (SMA)
04:01PM 32.8192 -96.8061 132° Southeast 196 226 3,100 1,800 Climbing FAA TRACON SMA TRACON (SMA)
04:02PM 32.7892 -96.7661 114° Southeast 242 278 3,900 540 Climbing FAA TRACON SMA TRACON (SMA)
04:02PM 32.7692 -96.7136 63° Northeast 270 311 3,900 60 Level FAA TRACON SMA TRACON (SMA)
04:03PM 32.7933 -96.6569 61° Northeast 279 321 4,000 1,080 Climbing FAA TRACON SMA TRACON (SMA)
04:04PM 32.8164 -96.6072 60° Northeast 280 322 5,400 2,160 Climbing FAA TRACON SMA TRACON (SMA)
04:04PM 32.8442 -96.5497 61° Northeast 290 334 6,800 1,080 Climbing FAA TRACON SMA TRACON (SMA)
04:05PM 32.8678 -96.4983 61° Northeast 291 335 6,900 60 Climbing FAA TRACON SMA TRACON (SMA)
04:06PM 32.8953 -96.4400 61° Northeast 291 335 6,900  Level FAA TRACON SMA TRACON (SMA)
04:06PM 32.9225 -96.3817 58° Northeast 292 336 6,900  Level FAA TRACON SMA TRACON (SMA)
04:07PM 32.9494 -96.3311 58° Northeast 292 336 6,900 -420 Level FAA TRACON SMA TRACON (SMA)
04:08PM 32.9778 -96.2769 56° Northeast 278 320 6,400 -1,440 Descending FAA TRACON SMA TRACON (SMA)
04:08PM 33.0083 -96.2231 47° Northeast 280 322 5,000 -1,800 Descending FAA TRACON SMA TRACON (SMA)
04:09PM 33.0394 -96.1839 14° North 279 321 4,100 -1,500 Descending FAA TRACON SMA TRACON (SMA)
04:10PM 33.0903 -96.1689 16° North 277 319 3,100 -900 Descending FAA TRACON SMA TRACON (SMA)
04:10PM 33.1375 -96.1528 12° North 263 303 2,900 -180 Descending FAA TRACON SMA TRACON (SMA)
04:11PM 33.1867 -96.1406 33° Northeast 275 316 2,900 60 Level FAA TRACON SMA TRACON (SMA)
04:12PM 33.2256 -96.1103 99° East 257 296 3,000  Climbing FAA TRACON SMA TRACON (SMA)
04:12PM 33.2197 -96.0639 180° South 230 265 2,900 -480 Descending FAA TRACON SMA TRACON (SMA)
04:13PM 33.1908 -96.0642 180° South 177 204 2,400 -720 Descending FAA TRACON SMA TRACON (SMA)
04:14PM 33.1658 -96.0642 182° South 162 186 2,000 -660 Descending FAA TRACON SMA TRACON (SMA)
04:16PM 33.0767 -96.0672 181° South 144 166 800 300 Descending Fort Worth Center
04:17PM 33.0350 -96.0678 181° South 144 166 3,000 1,080 Climbing Fort Worth Center
04:18PM 32.9933 -96.0686 181° South 144 166 3,000  Level Fort Worth Center
04:19PM 32.9514 -96.0692 181° South 144 166 3,000  Level Fort Worth Center
04:20PM 32.9181 -96.0697 360° North 144 166 3,000  Level Fort Worth Center
04:21PM 32.9181 -96.0697 360° North 144 166 3,000  Level Fort Worth Center
04:22PM 32.9181 -96.0697 North 144 166 3,000  Level Fort Worth Center
04:23PM 33.0433 -96.0653 352° North 144 166 3,000 -840 Level Fort Worth Center
04:24PM 33.0558 -96.0675 241° Southwest 284 327 1,400  Descending Fort Worth Center
04:25PM 33.0333 -96.1150 241° Southwest 198 228 3,000 1,560 Climbing Fort Worth Center